Time;durP1;ratioP1;P1;durP2;ratioP2;P2;SDS_P1;SDS_P2;PMS_P1;PMS_P2;Temp;Humidity;BMP_temperature;BMP_pressure;BME280_temperature;BME280_humidity;BME280_pressure;Samples;Min_cycle;Max_cycle;Signal;HPM_P1;HPM_P2
2023/07/13 00:01:49;;;;;;;0.45;0.45;;;;;;;;;;5115904;27;20031;-85
2023/07/13 00:04:17;;;;;;;1.02;0.75;;;;;;;;;;5131280;27;20033;-86
2023/07/13 00:06:44;;;;;;;1.73;1.08;;;;;;;;;;5136033;27;20031;-85
2023/07/13 00:09:13;;;;;;;1.17;0.93;;;;;;;;;;5131844;27;20050;-85
2023/07/13 00:11:38;;;;;;;1.00;0.63;;;;;;;;;;5131956;27;20676;-84
2023/07/13 00:14:04;;;;;;;3.50;0.90;;;;;;;;;;5136631;27;20023;-84
2023/07/13 00:16:29;;;;;;;1.30;0.85;;;;;;;;;;5134132;27;20088;-86
2023/07/13 00:18:55;;;;;;;1.25;0.93;;;;;;;;;;5135704;27;20387;-85
2023/07/13 00:21:20;;;;;;;1.70;1.15;;;;;;;;;;5136258;27;20019;-84
2023/07/13 00:23:46;;;;;;;0.73;0.60;;;;;;;;;;5131140;27;20031;-85
2023/07/13 00:26:12;;;;;;;0.80;0.80;;;;;;;;;;5134405;27;20030;-85
2023/07/13 00:28:39;;;;;;;0.50;0.50;;;;;;;;;;5133092;27;20390;-84
2023/07/13 00:31:05;;;;;;;0.98;0.90;;;;;;;;;;5133075;27;20027;-84
2023/07/13 00:33:31;;;;;;;1.20;0.88;;;;;;;;;;5113660;28;20019;-85
2023/07/13 00:35:57;;;;;;;1.48;1.10;;;;;;;;;;5114822;28;20043;-86
2023/07/13 00:38:23;;;;;;;1.20;0.88;;;;;;;;;;5134114;28;20394;-85
2023/07/13 00:40:49;;;;;;;1.48;0.70;;;;;;;;;;5136466;28;20027;-85
2023/07/13 00:43:20;;;;;;;0.52;0.50;;;;;;;;;;5113690;28;20148;-84
2023/07/13 00:45:46;;;;;;;1.00;0.70;;;;;;;;;;5134499;28;20119;-84
2023/07/13 00:48:14;;;;;;;2.08;1.02;;;;;;;;;;5134624;28;20420;-86
2023/07/13 00:50:41;;;;;;;0.70;0.60;;;;;;;;;;5130829;28;20506;-84
2023/07/13 00:53:07;;;;;;;1.58;0.95;;;;;;;;;;5130770;28;20432;-85
2023/07/13 00:55:34;;;;;;;1.63;1.30;;;;;;;;;;5135217;27;20069;-84
2023/07/13 00:58:00;;;;;;;1.15;0.90;;;;;;;;;;5136131;27;21272;-84
2023/07/13 01:00:27;;;;;;;2.35;1.23;;;;;;;;;;5134472;27;20026;-84
2023/07/13 01:05:55;;;;;;;1.40;0.93;;;;;;;;;;5134227;27;20100;-87
2023/07/13 01:08:21;;;;;;;1.15;0.93;;;;;;;;;;5117910;27;20087;-84
2023/07/13 01:10:59;;;;;;;1.20;1.10;;;;;;;;;;5136525;27;20031;-86
2023/07/13 01:13:27;;;;;;;1.20;0.63;;;;;;;;;;5119702;27;20050;-84
2023/07/13 01:15:56;;;;;;;1.20;0.82;;;;;;;;;;5133102;27;20075;-86
2023/07/13 01:18:25;;;;;;;2.42;1.67;;;;;;;;;;5130958;27;20110;-86
2023/07/13 01:20:55;;;;;;;1.17;0.87;;;;;;;;;;5134067;27;20027;-85
2023/07/13 01:23:21;;;;;;;1.08;0.98;;;;;;;;;;5139563;27;20362;-85
2023/07/13 01:25:46;;;;;;;2.03;1.00;;;;;;;;;;5119642;27;20063;-84
2023/07/13 01:28:12;;;;;;;1.80;0.90;;;;;;;;;;5136141;27;20034;-85
2023/07/13 01:30:39;;;;;;;1.60;1.17;;;;;;;;;;5117537;27;20030;-84
2023/07/13 01:33:09;;;;;;;3.78;0.90;;;;;;;;;;5118951;27;20031;-85
2023/07/13 01:35:46;;;;;;;1.27;1.08;;;;;;;;;;5114679;27;20039;-87
2023/07/13 01:38:17;;;;;;;3.08;1.23;;;;;;;;;;5118041;27;20031;-85
2023/07/13 01:40:43;;;;;;;1.65;0.95;;;;;;;;;;5137108;27;20075;-85
2023/07/13 01:43:08;;;;;;;1.98;1.30;;;;;;;;;;5118188;27;20109;-85
2023/07/13 01:45:34;;;;;;;0.93;0.90;;;;;;;;;;5138661;27;20547;-85
2023/07/13 01:47:59;;;;;;;1.33;1.08;;;;;;;;;;5136278;27;20107;-86
2023/07/13 01:51:09;;;;;;;1.23;0.98;;;;;;;;;;5135856;27;20022;-85
2023/07/13 01:53:34;;;;;;;1.13;0.90;;;;;;;;;;5104027;27;20043;-88
2023/07/13 01:56:00;;;;;;;1.48;1.02;;;;;;;;;;5138201;27;20049;-88
2023/07/13 01:58:25;;;;;;;1.95;1.48;;;;;;;;;;5120983;27;20569;-85
2023/07/13 02:00:52;;;;;;;1.25;0.88;;;;;;;;;;5138010;27;20038;-87
2023/07/13 02:03:18;;;;;;;1.77;1.20;;;;;;;;;;5136515;27;20033;-87
2023/07/13 02:05:44;;;;;;;1.55;1.42;;;;;;;;;;5135065;27;20475;-86
2023/07/13 02:08:10;;;;;;;2.50;1.60;;;;;;;;;;5134918;27;20091;-87
2023/07/13 02:10:37;;;;;;;0.90;0.88;;;;;;;;;;5136681;27;20023;-84
2023/07/13 02:13:05;;;;;;;1.95;1.50;;;;;;;;;;5120252;27;20080;-84
2023/07/13 02:15:31;;;;;;;2.10;1.38;;;;;;;;;;5136050;27;20023;-86
2023/07/13 02:17:58;;;;;;;4.13;1.50;;;;;;;;;;5136363;27;20027;-83
2023/07/13 02:20:24;;;;;;;2.17;1.52;;;;;;;;;;5139394;27;20023;-83
2023/07/13 02:22:50;;;;;;;1.15;1.02;;;;;;;;;;5135553;27;20491;-83
2023/07/13 02:25:15;;;;;;;1.60;1.23;;;;;;;;;;5136309;27;20023;-84
2023/07/13 02:27:41;;;;;;;1.90;1.38;;;;;;;;;;5118724;27;20029;-85
2023/07/13 02:30:07;;;;;;;1.10;0.88;;;;;;;;;;5135976;27;20023;-85
2023/07/13 02:32:33;;;;;;;1.35;1.08;;;;;;;;;;5136677;27;20463;-83
2023/07/13 02:34:59;;;;;;;1.70;1.35;;;;;;;;;;5134591;27;20054;-84
2023/07/13 02:37:25;;;;;;;2.10;1.48;;;;;;;;;;5137074;27;20030;-86
2023/07/13 02:39:50;;;;;;;1.25;1.15;;;;;;;;;;5112499;27;20054;-85
2023/07/13 02:42:15;;;;;;;2.00;1.33;;;;;;;;;;5117962;27;20108;-85
2023/07/13 02:44:41;;;;;;;2.38;1.20;;;;;;;;;;5138955;27;20035;-85
2023/07/13 02:47:07;;;;;;;1.77;1.20;;;;;;;;;;5135424;27;20023;-83
2023/07/13 02:49:32;;;;;;;2.50;1.65;;;;;;;;;;5136502;27;20050;-84
2023/07/13 02:51:58;;;;;;;1.98;1.02;;;;;;;;;;5135649;27;20023;-85
2023/07/13 02:54:23;;;;;;;1.67;1.27;;;;;;;;;;5132988;27;20051;-84
2023/07/13 02:56:49;;;;;;;2.03;1.40;;;;;;;;;;5136899;27;20095;-83
2023/07/13 02:59:14;;;;;;;1.15;0.93;;;;;;;;;;5134321;27;20027;-86
2023/07/13 03:01:40;;;;;;;2.50;1.30;;;;;;;;;;5134234;27;20038;-83
2023/07/13 03:04:06;;;;;;;0.90;0.85;;;;;;;;;;5118063;27;20034;-85
2023/07/13 03:06:32;;;;;;;1.67;1.08;;;;;;;;;;5118285;27;20027;-84
2023/07/13 03:08:59;;;;;;;4.32;1.17;;;;;;;;;;5134716;27;20102;-85
2023/07/13 03:11:25;;;;;;;2.13;1.35;;;;;;;;;;5136021;27;20031;-85
2023/07/13 03:13:51;;;;;;;1.15;1.00;;;;;;;;;;5133960;27;20023;-85
2023/07/13 03:16:17;;;;;;;1.67;1.10;;;;;;;;;;5132159;27;20489;-85
2023/07/13 03:18:43;;;;;;;1.90;0.95;;;;;;;;;;5132406;27;20043;-85
2023/07/13 03:21:08;;;;;;;2.08;1.50;;;;;;;;;;5135209;27;20030;-84
2023/07/13 03:23:34;;;;;;;1.20;1.02;;;;;;;;;;5133777;27;20027;-85
2023/07/13 03:26:12;;;;;;;4.50;1.55;;;;;;;;;;5135262;27;20015;-84
2023/07/13 03:28:39;;;;;;;1.48;0.90;;;;;;;;;;5133747;27;20096;-84
2023/07/13 03:31:08;;;;;;;1.45;0.88;;;;;;;;;;5134485;27;20091;-84
2023/07/13 03:33:34;;;;;;;2.92;1.50;;;;;;;;;;5133675;27;20031;-84
2023/07/13 03:36:00;;;;;;;2.28;1.58;;;;;;;;;;5131955;27;20062;-83
2023/07/13 03:38:26;;;;;;;1.20;0.90;;;;;;;;;;5115320;27;20023;-84
2023/07/13 03:40:55;;;;;;;2.53;1.13;;;;;;;;;;5115286;27;20475;-84
2023/07/13 03:43:20;;;;;;;1.37;0.90;;;;;;;;;;5132871;27;20019;-84
2023/07/13 03:45:46;;;;;;;1.17;1.05;;;;;;;;;;5117753;27;20217;-86
2023/07/13 03:48:12;;;;;;;1.88;1.30;;;;;;;;;;5135540;27;20030;-83
2023/07/13 03:50:38;;;;;;;1.83;1.52;;;;;;;;;;5134325;27;20025;-84
2023/07/13 03:53:04;;;;;;;1.73;1.20;;;;;;;;;;5132649;27;20031;-85
2023/07/13 03:55:29;;;;;;;2.08;1.55;;;;;;;;;;5131947;27;20043;-85
2023/07/13 03:58:00;;;;;;;1.92;1.27;;;;;;;;;;5133251;27;20072;-83
2023/07/13 04:00:26;;;;;;;2.22;1.05;;;;;;;;;;5133071;27;20038;-84
2023/07/13 04:02:51;;;;;;;2.08;1.33;;;;;;;;;;5133517;27;20019;-84
2023/07/13 04:05:17;;;;;;;3.65;1.60;;;;;;;;;;5133048;27;20031;-83
2023/07/13 04:07:43;;;;;;;1.88;1.17;;;;;;;;;;5134088;27;20031;-83
2023/07/13 04:10:09;;;;;;;1.17;1.08;;;;;;;;;;5137043;27;20015;-86
2023/07/13 04:12:35;;;;;;;1.00;0.80;;;;;;;;;;5113120;27;20038;-85
2023/07/13 04:15:00;;;;;;;2.45;1.23;;;;;;;;;;5136485;27;20027;-85
2023/07/13 04:17:26;;;;;;;5.68;1.73;;;;;;;;;;5118162;27;20083;-85
2023/07/13 04:19:51;;;;;;;1.92;1.30;;;;;;;;;;5135518;27;20031;-85
2023/07/13 04:22:17;;;;;;;2.25;1.65;;;;;;;;;;5116172;27;20023;-84
2023/07/13 04:24:42;;;;;;;1.27;0.88;;;;;;;;;;5134833;27;20218;-84
2023/07/13 04:27:08;;;;;;;1.95;1.20;;;;;;;;;;5130072;27;20158;-87
2023/07/13 04:29:33;;;;;;;1.50;0.95;;;;;;;;;;5133950;27;20023;-84
2023/07/13 04:31:59;;;;;;;2.13;1.35;;;;;;;;;;5112631;27;20031;-85
2023/07/13 04:34:24;;;;;;;1.17;0.90;;;;;;;;;;5113901;27;20046;-87
2023/07/13 04:36:56;;;;;;;1.90;1.30;;;;;;;;;;5134956;28;21308;-92
2023/07/13 04:39:21;;;;;;;1.55;1.10;;;;;;;;;;5116601;28;20038;-90
2023/07/13 04:41:49;;;;;;;2.15;1.42;;;;;;;;;;5136461;28;20023;-90
2023/07/13 04:44:15;;;;;;;1.52;1.13;;;;;;;;;;5135454;28;20030;-92
2023/07/13 04:46:41;;;;;;;2.53;1.60;;;;;;;;;;5138703;28;20023;-90
2023/07/13 04:49:32;;;;;;;2.30;1.48;;;;;;;;;;5132650;28;20535;-91
2023/07/13 04:51:57;;;;;;;2.80;1.48;;;;;;;;;;5111526;28;20416;-89
2023/07/13 04:54:26;;;;;;;2.78;1.67;;;;;;;;;;5116572;28;20084;-91
2023/07/13 04:56:51;;;;;;;3.03;1.83;;;;;;;;;;5115470;28;20030;-89
2023/07/13 04:59:17;;;;;;;1.92;1.33;;;;;;;;;;5134150;28;20105;-90
2023/07/13 05:01:42;;;;;;;3.50;1.60;;;;;;;;;;5115555;28;20069;-93
2023/07/13 05:04:08;;;;;;;2.33;1.20;;;;;;;;;;5116585;28;20038;-91
2023/07/13 05:06:33;;;;;;;1.45;1.20;;;;;;;;;;5108310;28;20023;-90
2023/07/13 05:08:59;;;;;;;1.42;1.30;;;;;;;;;;5129978;28;20028;-92
2023/07/13 05:11:24;;;;;;;3.75;1.67;;;;;;;;;;5115295;28;20467;-87
2023/07/13 05:13:50;;;;;;;3.33;1.70;;;;;;;;;;5133798;28;20023;-88
2023/07/13 05:16:15;;;;;;;2.75;2.05;;;;;;;;;;5110861;28;20031;-90
2023/07/13 05:18:41;;;;;;;2.85;2.05;;;;;;;;;;5133747;28;20374;-88
2023/07/13 05:21:09;;;;;;;2.10;1.83;;;;;;;;;;5132898;28;20023;-87
2023/07/13 05:23:36;;;;;;;3.00;1.95;;;;;;;;;;5129976;28;20023;-89
2023/07/13 05:26:02;;;;;;;2.15;1.58;;;;;;;;;;5132467;28;20043;-91
2023/07/13 05:28:30;;;;;;;3.00;2.17;;;;;;;;;;5131479;28;20398;-90
2023/07/13 05:30:55;;;;;;;8.32;3.05;;;;;;;;;;5116398;28;20027;-88
2023/07/13 05:33:21;;;;;;;2.65;2.03;;;;;;;;;;5129627;28;20080;-89
2023/07/13 05:35:47;;;;;;;2.13;1.58;;;;;;;;;;5114566;28;20051;-86
2023/07/13 05:38:12;;;;;;;3.55;2.75;;;;;;;;;;5129533;28;20028;-85
2023/07/13 05:40:38;;;;;;;2.10;1.48;;;;;;;;;;5129855;27;20443;-84
2023/07/13 05:43:03;;;;;;;1.33;1.23;;;;;;;;;;5117599;27;20031;-84
2023/07/13 05:45:29;;;;;;;2.97;2.25;;;;;;;;;;5135992;27;20030;-87
2023/07/13 05:47:54;;;;;;;2.55;1.63;;;;;;;;;;5118542;27;20485;-91
2023/07/13 05:50:23;;;;;;;3.97;2.05;;;;;;;;;;5116854;27;20502;-90
2023/07/13 05:52:48;;;;;;;3.33;2.25;;;;;;;;;;5134834;27;20037;-86
2023/07/13 05:55:14;;;;;;;2.63;1.63;;;;;;;;;;5112885;27;20027;-87
2023/07/13 05:57:39;;;;;;;4.47;2.17;;;;;;;;;;5116685;27;20023;-88
2023/07/13 06:00:06;;;;;;;1.80;1.63;;;;;;;;;;5131965;27;20027;-88
2023/07/13 06:02:31;;;;;;;2.53;1.67;;;;;;;;;;5113920;27;20031;-87
2023/07/13 06:04:57;;;;;;;1.70;1.33;;;;;;;;;;5136469;27;20489;-91
2023/07/13 06:07:23;;;;;;;3.03;2.30;;;;;;;;;;5136813;27;20799;-90
2023/07/13 06:09:48;;;;;;;2.45;1.67;;;;;;;;;;5114930;27;20042;-89
2023/07/13 06:12:14;;;;;;;2.40;1.60;;;;;;;;;;5117160;27;20027;-89
2023/07/13 06:14:39;;;;;;;1.95;1.75;;;;;;;;;;5132750;27;20366;-88
2023/07/13 06:17:05;;;;;;;2.03;1.50;;;;;;;;;;5111553;27;20027;-88
2023/07/13 06:19:32;;;;;;;3.95;1.60;;;;;;;;;;5116947;27;20027;-87
2023/07/13 06:21:58;;;;;;;2.40;1.50;;;;;;;;;;5135985;27;20111;-89
2023/07/13 06:24:24;;;;;;;1.30;1.20;;;;;;;;;;5134435;27;20027;-90
2023/07/13 06:26:50;;;;;;;2.15;1.55;;;;;;;;;;5117267;27;20054;-89
2023/07/13 06:29:15;;;;;;;2.70;1.70;;;;;;;;;;5116379;27;20023;-91
2023/07/13 06:31:41;;;;;;;1.58;1.25;;;;;;;;;;5117907;27;20023;-92
2023/07/13 06:34:39;;;;;;;1.83;1.40;;;;;;;;;;5117156;27;20023;-89
2023/07/13 06:37:07;;;;;;;3.00;1.63;;;;;;;;;;5108028;27;20035;-88
2023/07/13 06:39:33;;;;;;;2.40;1.77;;;;;;;;;;5112195;27;20034;-88
2023/07/13 06:41:59;;;;;;;1.77;1.48;;;;;;;;;;5115577;27;20114;-88
2023/07/13 06:44:33;;;;;;;2.17;1.80;;;;;;;;;;5116773;27;20031;-89
2023/07/13 06:46:59;;;;;;;1.92;1.42;;;;;;;;;;5117201;27;20035;-91
2023/07/13 06:49:24;;;;;;;5.22;1.83;;;;;;;;;;5117662;27;20037;-88
2023/07/13 06:51:50;;;;;;;4.80;2.20;;;;;;;;;;5117011;27;20024;-92
2023/07/13 06:54:15;;;;;;;2.28;1.40;;;;;;;;;;5115443;27;20378;-90
2023/07/13 06:56:41;;;;;;;3.35;2.10;;;;;;;;;;5132697;27;20027;-91
2023/07/13 06:59:06;;;;;;;1.80;1.40;;;;;;;;;;5135184;27;20019;-90
2023/07/13 07:01:32;;;;;;;2.08;1.80;;;;;;;;;;5135212;27;20478;-91
2023/07/13 07:03:57;;;;;;;2.28;1.80;;;;;;;;;;5132864;27;20030;-88
2023/07/13 07:06:23;;;;;;;5.80;1.88;;;;;;;;;;5134141;27;20031;-89
2023/07/13 07:08:50;;;;;;;2.33;1.92;;;;;;;;;;5134121;27;20035;-90
2023/07/13 07:11:24;;;;;;;2.42;1.50;;;;;;;;;;5116791;27;20110;-92
2023/07/13 07:13:53;;;;;;;1.88;1.67;;;;;;;;;;5130349;27;20054;-90
2023/07/13 07:16:20;;;;;;;2.20;2.00;;;;;;;;;;5132948;27;20075;-89
2023/07/13 07:18:46;;;;;;;2.80;1.83;;;;;;;;;;5133921;27;20035;-90
2023/07/13 07:21:13;;;;;;;2.35;1.70;;;;;;;;;;5116005;27;20027;-90
2023/07/13 07:23:38;;;;;;;3.55;2.22;;;;;;;;;;5113451;27;20075;-87
2023/07/13 07:26:04;;;;;;;3.17;2.35;;;;;;;;;;5133464;27;20023;-88
2023/07/13 07:28:30;;;;;;;2.40;1.70;;;;;;;;;;5114984;27;20110;-89
2023/07/13 07:30:57;;;;;;;3.15;2.28;;;;;;;;;;5115868;27;20027;-89
2023/07/13 07:33:24;;;;;;;3.22;2.15;;;;;;;;;;5134475;27;20023;-92
2023/07/13 07:35:49;;;;;;;2.80;2.10;;;;;;;;;;5132700;27;20039;-87
2023/07/13 07:38:15;;;;;;;3.38;2.15;;;;;;;;;;5134176;27;20106;-88
2023/07/13 07:40:41;;;;;;;3.83;2.22;;;;;;;;;;5113391;27;20027;-88
2023/07/13 07:43:07;;;;;;;4.15;2.13;;;;;;;;;;5134008;27;20023;-89
2023/07/13 07:45:33;;;;;;;3.72;2.42;;;;;;;;;;5115150;27;20023;-86
2023/07/13 07:47:59;;;;;;;4.28;2.13;;;;;;;;;;5134282;27;20030;-88
2023/07/13 07:50:25;;;;;;;4.43;2.72;;;;;;;;;;5133727;27;20023;-88
2023/07/13 07:52:51;;;;;;;2.72;1.75;;;;;;;;;;5134054;27;20387;-85
2023/07/13 07:55:17;;;;;;;3.03;2.15;;;;;;;;;;5116054;27;20023;-88
2023/07/13 07:57:42;;;;;;;2.88;2.10;;;;;;;;;;5133626;27;20023;-85
2023/07/13 08:00:08;;;;;;;2.13;1.70;;;;;;;;;;5115377;27;20042;-87
2023/07/13 08:02:33;;;;;;;5.13;1.90;;;;;;;;;;5114692;27;20035;-85
2023/07/13 08:04:59;;;;;;;2.33;1.77;;;;;;;;;;5131445;27;20096;-87
2023/07/13 08:07:24;;;;;;;1.70;1.58;;;;;;;;;;5113882;27;20023;-87
2023/07/13 08:09:53;;;;;;;2.83;2.00;;;;;;;;;;5134145;27;20027;-89
2023/07/13 08:12:18;;;;;;;2.38;1.80;;;;;;;;;;5114063;27;20027;-87
2023/07/13 08:14:44;;;;;;;3.38;2.35;;;;;;;;;;5111804;27;20037;-87
2023/07/13 08:17:09;;;;;;;2.47;1.88;;;;;;;;;;5134311;27;20026;-87
2023/07/13 08:19:35;;;;;;;1.73;1.40;;;;;;;;;;5113518;27;20467;-87
2023/07/13 08:22:00;;;;;;;3.10;2.10;;;;;;;;;;5128779;27;20055;-89
2023/07/13 08:24:25;;;;;;;1.85;1.65;;;;;;;;;;5115512;28;20023;-87
2023/07/13 08:26:54;;;;;;;2.60;1.75;;;;;;;;;;5133394;27;20382;-87
2023/07/13 08:29:20;;;;;;;4.20;2.70;;;;;;;;;;5131826;27;20534;-85
2023/07/13 08:31:45;;;;;;;3.33;2.03;;;;;;;;;;5114302;28;20023;-87
2023/07/13 08:34:14;;;;;;;2.13;1.80;;;;;;;;;;5129604;27;20054;-86
2023/07/13 08:36:40;;;;;;;2.67;2.08;;;;;;;;;;5113990;28;20092;-85
2023/07/13 08:39:06;;;;;;;2.10;1.90;;;;;;;;;;5113605;28;20023;-86
2023/07/13 08:41:33;;;;;;;2.55;1.92;;;;;;;;;;5114057;28;20023;-90
2023/07/13 08:44:00;;;;;;;1.90;1.75;;;;;;;;;;5131354;28;20023;-88
2023/07/13 08:46:30;;;;;;;3.95;2.38;;;;;;;;;;5112262;28;20027;-93
2023/07/13 08:48:59;;;;;;;2.55;1.80;;;;;;;;;;5113428;28;20088;-86
2023/07/13 08:51:34;;;;;;;3.10;2.63;;;;;;;;;;5132229;28;20064;-87
2023/07/13 08:54:03;;;;;;;2.78;2.10;;;;;;;;;;5128961;28;20039;-87
2023/07/13 08:56:30;;;;;;;;;;;;;;;;;;5108085;28;20553;-88
2023/07/13 08:59:06;;;;;;;2.53;1.85;;;;;;;;;;5113727;28;19970;-87
2023/07/13 09:01:43;;;;;;;2.53;1.90;;;;;;;;;;5107292;28;20443;-87
2023/07/13 09:04:23;;;;;;;7.55;1.65;;;;;;;;;;5130441;28;20030;-88
2023/07/13 09:06:54;;;;;;;;;;;;;;;;;;5114561;28;20032;-84
2023/07/13 09:09:41;;;;;;;2.22;1.52;;;;;;;;;;5131682;28;19931;-88
2023/07/13 09:12:43;;;;;;;3.05;2.03;;;;;;;;;;5123514;28;20441;-87
2023/07/13 09:15:31;;;;;;;1.33;1.23;;;;;;;;;;5131243;27;20065;-86
2023/07/13 09:18:10;;;;;;;3.45;2.47;;;;;;;;;;5117907;27;20454;-87
2023/07/13 09:20:42;;;;;;;2.20;1.95;;;;;;;;;;5132544;27;20106;-86
2023/07/13 09:23:15;;;;;;;1.90;1.35;;;;;;;;;;5127994;27;20039;-85
2023/07/13 09:25:43;;;;;;;2.33;1.65;;;;;;;;;;5129880;27;20062;-85
2023/07/13 09:28:09;;;;;;;2.33;1.58;;;;;;;;;;5116541;27;20047;-86
2023/07/13 09:31:03;;;;;;;3.95;2.67;;;;;;;;;;5117480;27;20051;-88
2023/07/13 09:33:30;;;;;;;3.10;2.00;;;;;;;;;;5125639;27;20038;-85
2023/07/13 09:35:59;;;;;;;3.15;1.98;;;;;;;;;;5136094;27;20099;-85
2023/07/13 09:38:29;;;;;;;3.08;2.25;;;;;;;;;;5136938;27;20027;-89
2023/07/13 09:41:25;;;;;;;4.43;2.35;;;;;;;;;;5120974;27;20035;-86
2023/07/13 09:44:09;;;;;;;2.95;2.13;;;;;;;;;;5140595;27;20058;-87
2023/07/13 09:47:29;;;;;;;5.03;2.83;;;;;;;;;;5131740;27;20051;-89
2023/07/13 09:50:24;;;;;;;2.33;1.83;;;;;;;;;;5117915;27;20059;-89
2023/07/13 09:59:36;;;;;;;2.83;1.83;;;;;;;;;;5037359;28;20096;-88
2023/07/13 10:02:25;;;;;;;3.67;2.47;;;;;;;;;;5114543;27;20061;-88
2023/07/13 10:04:59;;;;;;;3.47;2.40;;;;;;;;;;5122315;27;20559;-89
2023/07/13 10:07:26;;;;;;;3.47;2.63;;;;;;;;;;5124210;27;20027;-88
2023/07/13 10:09:55;;;;;;;4.03;2.58;;;;;;;;;;5122229;27;20390;-85
2023/07/13 10:12:24;;;;;;;2.80;2.00;;;;;;;;;;5138747;27;20047;-88
2023/07/13 10:14:54;;;;;;;4.38;2.10;;;;;;;;;;5119513;27;20035;-85
2023/07/13 10:17:30;;;;;;;2.75;1.90;;;;;;;;;;5140202;27;20033;-86
2023/07/13 10:20:04;;;;;;;4.03;2.42;;;;;;;;;;5120656;27;20091;-87
2023/07/13 10:22:56;;;;;;;3.00;2.25;;;;;;;;;;5139791;27;20601;-90
2023/07/13 10:25:28;;;;;;;4.07;2.78;;;;;;;;;;5120412;27;20080;-86
2023/07/13 10:28:01;;;;;;;3.60;2.10;;;;;;;;;;5134797;27;20079;-86
2023/07/13 10:30:32;;;;;;;3.17;1.83;;;;;;;;;;5120054;27;20034;-86
2023/07/13 10:33:00;;;;;;;3.38;2.22;;;;;;;;;;5121035;27;20031;-92
2023/07/13 10:35:28;;;;;;;3.10;2.05;;;;;;;;;;5139798;27;20043;-87
2023/07/13 10:38:01;;;;;;;5.57;2.88;;;;;;;;;;5136979;27;20493;-88
2023/07/13 10:41:06;;;;;;;4.95;2.78;;;;;;;;;;5119668;27;20160;-86
2023/07/13 10:43:37;;;;;;;7.55;2.35;;;;;;;;;;5035348;28;20521;-90
2023/07/13 10:46:06;;;;;;;3.83;2.60;;;;;;;;;;5124983;27;20039;-89
2023/07/13 10:48:34;;;;;;;3.90;2.53;;;;;;;;;;5139905;27;20550;-87
2023/07/13 10:51:01;;;;;;;3.80;2.03;;;;;;;;;;5135450;27;20110;-86
2023/07/13 10:53:32;;;;;;;3.45;2.58;;;;;;;;;;5138256;27;20051;-87
2023/07/13 10:56:05;;;;;;;3.55;2.75;;;;;;;;;;5120436;27;20114;-89
2023/07/13 10:58:37;;;;;;;3.08;2.28;;;;;;;;;;5140155;27;20030;-89
2023/07/13 11:01:03;;;;;;;3.55;2.80;;;;;;;;;;5135647;27;20467;-89
2023/07/13 11:03:31;;;;;;;3.13;2.20;;;;;;;;;;5118238;27;20023;-88
2023/07/13 11:06:33;;;;;;;2.38;1.95;;;;;;;;;;5140774;27;20023;-90
2023/07/13 11:09:17;;;;;;;3.70;2.15;;;;;;;;;;5135424;27;20027;-87
2023/07/13 11:11:43;;;;;;;2.42;1.95;;;;;;;;;;5139356;27;20030;-89
2023/07/13 11:15:02;;;;;;;1.77;1.63;;;;;;;;;;5137155;27;20408;-85
2023/07/13 11:17:45;;;;;;;2.95;2.33;;;;;;;;;;5044852;27;20031;-90
2023/07/13 11:20:16;;;;;;;4.43;2.00;;;;;;;;;;5137175;27;20030;-90
2023/07/13 11:22:49;;;;;;;4.50;2.75;;;;;;;;;;5133095;27;20026;-91
2023/07/13 11:25:28;;;;;;;2.97;2.17;;;;;;;;;;5116749;27;20050;-88
2023/07/13 11:28:05;;;;;;;;;;;;;;;;;;5134194;27;20431;-90
2023/07/13 11:30:47;;;;;;;2.63;2.17;;;;;;;;;;5114872;27;19958;-89
2023/07/13 11:33:26;;;;;;;2.83;1.92;;;;;;;;;;5115090;27;20019;-87
2023/07/13 11:36:14;;;;;;;;;;;;;;;;;;5119796;27;20039;-91
2023/07/13 11:39:02;;;;;;;3.53;2.13;;;;;;;;;;5137788;27;19912;-87
2023/07/13 11:41:42;;;;;;;2.95;1.88;;;;;;;;;;5118445;27;20030;-87
2023/07/13 11:44:11;;;;;;;2.63;2.25;;;;;;;;;;5138084;27;20076;-89
2023/07/13 11:46:37;;;;;;;3.83;2.10;;;;;;;;;;5117934;27;20106;-88
2023/07/13 11:49:06;;;;;;;3.08;1.98;;;;;;;;;;5136929;27;20047;-88
2023/07/13 11:51:35;;;;;;;2.92;2.20;;;;;;;;;;5115141;27;20059;-86
2023/07/13 11:54:02;;;;;;;;;;;;;;;;;;5132697;27;20031;-85
2023/07/13 11:56:28;;;;;;;3.15;2.03;;;;;;;;;;5134964;27;19918;-87
2023/07/13 11:58:57;;;;;;;2.47;2.10;;;;;;;;;;5134079;27;20375;-88
2023/07/13 12:01:35;;;;;;;4.72;2.60;;;;;;;;;;5130731;27;20023;-87
2023/07/13 12:04:02;;;;;;;3.28;2.00;;;;;;;;;;5135189;27;20106;-88
2023/07/13 12:06:36;;;;;;;2.58;1.92;;;;;;;;;;5133612;27;20060;-85
2023/07/13 12:09:21;;;;;;;3.03;1.80;;;;;;;;;;5135536;27;20025;-87
2023/07/13 12:11:46;;;;;;;4.03;1.80;;;;;;;;;;5119549;27;20027;-89
2023/07/13 12:14:16;;;;;;;2.67;1.85;;;;;;;;;;5118620;27;20030;-89
2023/07/13 12:16:43;;;;;;;3.10;2.25;;;;;;;;;;5119670;27;20035;-84
2023/07/13 12:19:29;;;;;;;3.13;1.90;;;;;;;;;;5120200;27;20113;-87
2023/07/13 12:21:59;;;;;;;2.65;1.63;;;;;;;;;;5134299;27;20025;-87
2023/07/13 12:24:26;;;;;;;2.60;1.83;;;;;;;;;;5136715;27;20026;-89
2023/07/13 12:27:06;;;;;;;3.13;1.80;;;;;;;;;;5117590;27;20031;-84
2023/07/13 12:29:33;;;;;;;5.22;1.83;;;;;;;;;;5134724;27;20030;-89
2023/07/13 12:31:59;;;;;;;2.15;1.85;;;;;;;;;;5115868;27;20035;-86
2023/07/13 12:34:27;;;;;;;2.63;1.77;;;;;;;;;;5135918;27;20026;-88
2023/07/13 12:36:56;;;;;;;4.13;2.05;;;;;;;;;;5134666;27;20396;-86
2023/07/13 12:39:21;;;;;;;2.72;1.60;;;;;;;;;;5130528;27;20027;-89
2023/07/13 12:41:48;;;;;;;2.72;2.05;;;;;;;;;;5129861;28;20107;-88
2023/07/13 12:44:17;;;;;;;2.75;1.70;;;;;;;;;;5131917;28;20497;-91
2023/07/13 12:47:04;;;;;;;2.58;2.03;;;;;;;;;;5112621;28;20035;-91
2023/07/13 12:49:34;;;;;;;3.13;2.00;;;;;;;;;;5133558;27;20026;-88
2023/07/13 12:52:02;;;;;;;3.97;1.92;;;;;;;;;;5119201;27;20033;-90
2023/07/13 12:54:29;;;;;;;2.72;2.15;;;;;;;;;;5137474;27;20029;-88
2023/07/13 12:56:58;;;;;;;1.70;1.33;;;;;;;;;;5135349;27;20029;-88
2023/07/13 12:59:28;;;;;;;3.67;2.50;;;;;;;;;;5135842;27;20029;-85
2023/07/13 13:01:53;;;;;;;3.67;2.22;;;;;;;;;;5135613;27;20038;-88
2023/07/13 13:04:22;;;;;;;5.43;2.17;;;;;;;;;;5136209;27;20027;-89
2023/07/13 13:06:49;;;;;;;2.53;1.90;;;;;;;;;;5136612;27;20120;-90
2023/07/13 13:09:18;;;;;;;2.33;1.88;;;;;;;;;;5136973;27;20087;-89
2023/07/13 13:11:43;;;;;;;6.80;2.05;;;;;;;;;;5136588;27;20348;-87
2023/07/13 13:14:10;;;;;;;3.30;2.17;;;;;;;;;;5136180;27;20038;-87
2023/07/13 13:16:45;;;;;;;2.33;1.80;;;;;;;;;;5136330;27;20415;-88
2023/07/13 13:19:15;;;;;;;2.80;1.92;;;;;;;;;;5137396;27;20023;-90
2023/07/13 13:21:43;;;;;;;2.55;1.83;;;;;;;;;;5136259;27;20038;-90
2023/07/13 13:24:21;;;;;;;6.43;2.17;;;;;;;;;;5117469;27;20428;-89
2023/07/13 13:26:48;;;;;;;2.30;1.60;;;;;;;;;;5118848;27;20461;-88
2023/07/13 13:29:25;;;;;;;3.10;1.98;;;;;;;;;;5118410;27;20758;-90
2023/07/13 13:31:52;;;;;;;1.95;1.65;;;;;;;;;;5131875;27;20368;-89
2023/07/13 13:34:19;;;;;;;2.55;2.00;;;;;;;;;;5132842;27;20031;-91
2023/07/13 13:36:46;;;;;;;3.13;1.83;;;;;;;;;;5116250;28;20024;-89
2023/07/13 13:39:24;;;;;;;3.08;1.67;;;;;;;;;;5112425;28;20024;-85
2023/07/13 13:41:52;;;;;;;2.22;1.70;;;;;;;;;;5109378;27;20087;-88
2023/07/13 13:44:19;;;;;;;1.90;1.70;;;;;;;;;;5113025;28;20352;-88
2023/07/13 13:46:53;;;;;;;3.20;2.33;;;;;;;;;;5114601;28;20031;-89
2023/07/13 13:49:38;;;;;;;2.33;1.45;;;;;;;;;;5114603;28;20024;-89
2023/07/13 13:52:12;;;;;;;1.95;1.77;;;;;;;;;;5111796;28;20155;-91
2023/07/13 13:54:38;;;;;;;2.40;1.60;;;;;;;;;;5109285;28;20039;-87
2023/07/13 13:57:04;;;;;;;2.75;2.28;;;;;;;;;;5094632;28;20255;-88
2023/07/13 13:59:32;;;;;;;9.18;2.30;;;;;;;;;;5115081;28;20023;-83
2023/07/13 14:02:02;;;;;;;3.63;1.73;;;;;;;;;;5112355;28;20434;-85
2023/07/13 14:04:28;;;;;;;2.78;1.65;;;;;;;;;;5115351;28;20038;-83
2023/07/13 14:06:53;;;;;;;2.97;1.77;;;;;;;;;;5109022;28;20023;-81
2023/07/13 14:09:19;;;;;;;3.75;1.50;;;;;;;;;;5112522;28;20496;-85
2023/07/13 14:11:47;;;;;;;3.90;1.95;;;;;;;;;;5113185;28;20110;-86
2023/07/13 14:14:18;;;;;;;3.37;1.70;;;;;;;;;;5114447;28;20035;-85
2023/07/13 14:16:44;;;;;;;2.83;1.75;;;;;;;;;;5110988;28;20027;-85
2023/07/13 14:19:14;;;;;;;2.40;1.73;;;;;;;;;;5108258;28;20441;-89
2023/07/13 14:21:39;;;;;;;4.35;2.08;;;;;;;;;;5112290;28;20026;-87
2023/07/13 14:24:05;;;;;;;2.22;1.10;;;;;;;;;;5103389;28;20024;-83
2023/07/13 14:26:39;;;;;;;2.72;1.63;;;;;;;;;;5114690;28;20031;-86
2023/07/13 14:29:11;;;;;;;2.58;1.23;;;;;;;;;;5107133;28;20039;-87
2023/07/13 14:31:37;;;;;;;2.17;1.50;;;;;;;;;;5110567;28;20055;-85
2023/07/13 14:34:02;;;;;;;2.78;1.92;;;;;;;;;;5114362;28;20486;-88
2023/07/13 14:36:32;;;;;;;3.25;2.35;;;;;;;;;;5109583;28;20204;-88
2023/07/13 14:39:00;;;;;;;3.30;1.83;;;;;;;;;;5093160;28;20059;-86
2023/07/13 14:41:26;;;;;;;2.17;1.73;;;;;;;;;;5098917;28;20527;-89
2023/07/13 14:43:51;;;;;;;1.83;1.40;;;;;;;;;;5094316;28;20158;-86
2023/07/13 14:46:35;;;;;;;3.42;1.77;;;;;;;;;;5094433;27;20027;-85
2023/07/13 14:49:23;;;;;;;2.95;1.88;;;;;;;;;;5101981;28;20030;-89
2023/07/13 14:51:49;;;;;;;;;;;;;;;;;;5096684;28;20060;-85
2023/07/13 14:54:14;;;;;;;3.42;2.13;;;;;;;;;;5096714;28;20322;-87
2023/07/13 14:56:40;;;;;;;3.92;2.20;;;;;;;;;;5096644;28;20028;-89
2023/07/13 14:59:07;;;;;;;2.60;1.95;;;;;;;;;;5096039;28;20032;-88
2023/07/13 15:01:34;;;;;;;4.63;2.10;;;;;;;;;;5099296;28;20035;-88
2023/07/13 15:04:00;;;;;;;3.63;1.70;;;;;;;;;;5095085;28;20388;-86
2023/07/13 15:06:25;;;;;;;2.50;1.50;;;;;;;;;;5093009;28;20017;-86
2023/07/13 15:08:51;;;;;;;2.60;1.75;;;;;;;;;;5093135;28;20028;-86